Time,TemperatureF,DewpointF,PressureIn,WindDirection,WindDirectionDegrees,WindSpeedMPH,WindSpeedGustMPH,Humidity,HourlyPrecipIn,Conditions,Clouds,dailyrainin,SoftwareType,DateUTC
2013-12-06 00:29:00,51.0,51.0,29.90,North,-999,0.0,0.0,100,0.00,,,-99.99,WeatherLink 5.7,2013-12-06 05:29:00,
2013-12-06 00:59:00,50.9,50.9,29.90,North,-999,0.0,0.0,100,0.00,,,-99.99,WeatherLink 5.7,2013-12-06 05:59:00,
2013-12-06 01:29:00,50.9,50.9,29.88,North,-999,0.0,0.0,100,0.00,,,-99.99,WeatherLink 5.7,2013-12-06 06:29:00,
2013-12-06 01:59:00,50.6,50.6,29.87,North,-999,0.0,0.0,100,0.00,,,-99.99,WeatherLink 5.7,2013-12-06 06:59:00,
2013-12-06 02:29:00,50.7,50.7,29.88,North,-999,0.0,0.0,100,0.00,,,-99.99,WeatherLink 5.7,2013-12-06 07:29:00,
2013-12-06 02:59:00,50.6,50.6,29.88,North,-999,0.0,0.0,100,0.00,,,-99.99,WeatherLink 5.7,2013-12-06 07:59:00,
2013-12-06 03:29:00,50.8,50.8,29.88,North,-999,0.0,0.0,100,0.00,,,-99.99,WeatherLink 5.7,2013-12-06 08:29:00,
2013-12-06 03:59:00,50.9,50.9,29.89,North,-999,0.0,0.0,100,0.01,,,-99.99,WeatherLink 5.7,2013-12-06 08:59:00,
2013-12-06 04:29:00,50.4,50.4,29.93,NNE,22,2.0,15.0,100,0.04,,,-99.99,WeatherLink 5.7,2013-12-06 09:29:00,
2013-12-06 04:59:00,46.2,46.2,29.93,NNE,22,3.0,10.0,100,0.06,,,-99.99,WeatherLink 5.7,2013-12-06 09:59:00,
2013-12-06 05:29:00,44.7,44.7,29.93,NNE,22,3.0,12.0,100,0.05,,,-99.99,WeatherLink 5.7,2013-12-06 10:29:00,
2013-12-06 05:59:00,43.6,43.6,29.95,NNE,22,3.0,8.0,100,0.03,,,-99.99,WeatherLink 5.7,2013-12-06 10:59:00,
2013-12-06 06:29:00,42.5,42.5,29.97,NE,45,1.0,7.0,100,0.04,,,-99.99,WeatherLink 5.7,2013-12-06 11:29:00,
2013-12-06 06:59:00,41.7,41.7,29.99,NE,45,2.0,6.0,100,0.03,,,-99.99,WeatherLink 5.7,2013-12-06 11:59:00,
2013-12-06 07:29:00,41.0,41.0,30.01,NE,45,1.0,7.0,100,0.00,,,-99.99,WeatherLink 5.7,2013-12-06 12:29:00,
2013-12-06 07:59:00,40.7,40.7,30.02,NE,45,1.0,5.0,100,0.02,,,-99.99,WeatherLink 5.7,2013-12-06 12:59:00,
2013-12-06 08:29:00,40.3,40.3,30.03,NE,45,2.0,7.0,100,0.08,,,-99.99,WeatherLink 5.7,2013-12-06 13:29:00,
2013-12-06 08:59:00,40.0,40.0,30.03,NE,45,1.0,5.0,100,0.06,,,-99.99,WeatherLink 5.7,2013-12-06 13:59:00,
2013-12-06 09:29:00,40.4,40.4,30.04,NNE,22,2.0,8.0,100,0.01,,,-99.99,WeatherLink 5.7,2013-12-06 14:29:00,
2013-12-06 09:59:00,40.5,40.5,30.05,NNE,22,1.0,7.0,100,0.01,,,-99.99,WeatherLink 5.7,2013-12-06 14:59:00,
2013-12-06 10:29:00,40.7,40.7,30.02,NNE,22,2.0,8.0,100,0.00,,,-99.99,WeatherLink 5.7,2013-12-06 15:29:00,
2013-12-06 10:59:00,41.7,41.7,30.04,NE,45,1.0,7.0,100,0.00,,,-99.99,WeatherLink 5.7,2013-12-06 15:59:00,
2013-12-06 11:29:00,41.7,41.7,30.06,NE,45,1.0,5.0,100,0.00,,,-99.99,WeatherLink 5.7,2013-12-06 16:29:00,
2013-12-06 11:59:00,41.9,41.1,30.05,NNE,22,1.0,7.0,97,0.00,,,-99.99,WeatherLink 5.7,2013-12-06 16:59:00,
2013-12-06 12:29:00,41.9,40.6,30.05,NNE,22,2.0,8.0,95,0.00,,,-99.99,WeatherLink 5.7,2013-12-06 17:29:00,
2013-12-06 12:59:00,42.3,40.7,30.03,NNE,22,1.0,5.0,94,0.00,,,-99.99,WeatherLink 5.7,2013-12-06 17:59:00,
2013-12-06 13:29:00,42.6,40.4,30.03,NNE,22,2.0,8.0,92,0.00,,,-99.99,WeatherLink 5.7,2013-12-06 18:29:00,
2013-12-06 13:59:00,42.7,40.0,30.02,NNE,22,1.0,7.0,90,0.00,,,-99.99,WeatherLink 5.7,2013-12-06 18:59:00,
2013-12-06 14:29:00,42.7,39.4,30.03,NNE,22,2.0,5.0,88,0.00,,,-99.99,WeatherLink 5.7,2013-12-06 19:29:00,
2013-12-06 14:59:00,42.4,38.5,30.04,NNE,22,1.0,5.0,86,0.00,,,-99.99,WeatherLink 5.7,2013-12-06 19:59:00,
2013-12-06 15:29:00,42.2,38.0,30.05,NNE,22,0.0,2.0,85,0.00,,,-99.99,WeatherLink 5.7,2013-12-06 20:29:00,
2013-12-06 15:59:00,41.6,37.1,30.05,NNE,22,1.0,6.0,84,0.00,,,-99.99,WeatherLink 5.7,2013-12-06 20:59:00,
2013-12-06 16:29:00,40.9,36.4,30.05,NNE,22,2.0,6.0,84,0.00,,,-99.99,WeatherLink 5.7,2013-12-06 21:29:00,
2013-12-06 16:59:00,40.3,36.1,30.07,NNE,22,1.0,6.0,85,0.01,,,-99.99,WeatherLink 5.7,2013-12-06 21:59:00,
2013-12-06 17:29:00,39.3,37.2,30.09,NNE,22,1.0,5.0,92,0.04,,,-99.99,WeatherLink 5.7,2013-12-06 22:29:00,
2013-12-06 17:59:00,38.2,36.9,30.08,NNE,22,0.0,2.0,95,0.07,,,-99.99,WeatherLink 5.7,2013-12-06 22:59:00,
2013-12-06 18:29:00,37.5,37.0,30.11,NNE,22,0.0,3.0,98,0.06,,,-99.99,WeatherLink 5.7,2013-12-06 23:29:00,
2013-12-06 18:59:00,36.9,36.4,30.11,NNE,22,1.0,5.0,98,0.04,,,-99.99,WeatherLink 5.7,2013-12-06 23:59:00,
2013-12-06 19:29:00,36.5,36.2,30.10,NNE,22,1.0,5.0,99,0.04,,,-99.99,WeatherLink 5.7,2013-12-07 00:29:00,
2013-12-06 19:59:00,36.3,36.0,30.14,NNE,22,1.0,5.0,99,0.03,,,-99.99,WeatherLink 5.7,2013-12-07 00:59:00,
2013-12-06 20:29:00,35.9,35.6,30.17,NNE,22,0.0,2.0,99,0.05,,,-99.99,WeatherLink 5.7,2013-12-07 01:29:00,
2013-12-06 20:59:00,34.9,34.6,30.12,NNE,22,1.0,7.0,99,0.05,,,-99.99,WeatherLink 5.7,2013-12-07 01:59:00,
2013-12-06 21:29:00,34.0,33.7,30.11,NNE,22,1.0,6.0,99,0.04,,,-99.99,WeatherLink 5.7,2013-12-07 02:29:00,
2013-12-06 21:59:00,33.7,33.4,30.16,NNE,22,1.0,6.0,99,0.05,,,-99.99,WeatherLink 5.7,2013-12-07 02:59:00,
2013-12-06 22:29:00,33.1,32.9,30.14,WSW,247,1.0,4.0,99,0.02,,,-99.99,WeatherLink 5.7,2013-12-07 03:29:00,
2013-12-06 22:59:00,32.5,32.3,30.16,WSW,247,0.0,2.0,99,0.01,,,-99.99,WeatherLink 5.7,2013-12-07 03:59:00,
2013-12-06 23:29:00,32.5,32.5,30.16,WSW,247,0.0,2.0,100,0.01,,,-99.99,WeatherLink 5.7,2013-12-07 04:29:00,
2013-12-06 23:59:00,32.3,32.3,30.15,WSW,247,1.0,5.0,100,0.00,,,-99.99,WeatherLink 5.7,2013-12-07 04:59:00,